Time;durP1;ratioP1;P1;durP2;ratioP2;P2;SDS_P1;SDS_P2;PMS_P1;PMS_P2;Temp;Humidity;BMP_temperature;BMP_pressure;BME280_temperature;BME280_humidity;BME280_pressure;Samples;Min_cycle;Max_cycle;Signal;HPM_P1;HPM_P2
2023/01/10 00:00:13;;;;;;;0.20;0.10;;;;;;;;;;5036425;28;20064;-89
2023/01/10 00:02:39;;;;;;;0.20;0.10;;;;;;;;;;5039682;28;20072;-87
2023/01/10 00:05:05;;;;;;;0.20;0.10;;;;;;;;;;5052489;28;20064;-89
2023/01/10 00:07:31;;;;;;;0.20;0.20;;;;;;;;;;5036976;28;20050;-90
2023/01/10 00:09:57;;;;;;;0.20;0.10;;;;;;;;;;5045985;28;20126;-90
2023/01/10 00:15:08;;;;;;;0.20;0.10;;;;;;;;;;5045918;28;20068;-88
2023/01/10 00:17:34;;;;;;;0.20;0.10;;;;;;;;;;5026646;28;20048;-89
2023/01/10 00:22:31;;;;;;;0.20;0.10;;;;;;;;;;5106720;28;20131;-84
2023/01/10 00:24:57;;;;;;;0.20;0.10;;;;;;;;;;5089313;28;20053;-84
2023/01/10 00:27:23;;;;;;;0.20;0.10;;;;;;;;;;5065304;28;20040;-85
2023/01/10 00:29:53;;;;;;;0.20;0.10;;;;;;;;;;5071186;28;20067;-85
2023/01/10 00:32:20;;;;;;;0.20;0.10;;;;;;;;;;5096177;28;20040;-85
2023/01/10 00:34:46;;;;;;;0.20;0.10;;;;;;;;;;5090284;28;20099;-83
2023/01/10 00:37:12;;;;;;;0.20;0.10;;;;;;;;;;5063158;28;20039;-84
2023/01/10 00:39:38;;;;;;;0.20;0.10;;;;;;;;;;5074195;28;20116;-84
2023/01/10 00:44:49;;;;;;;0.20;0.10;;;;;;;;;;5070216;28;20498;-84
2023/01/10 00:47:15;;;;;;;0.20;0.10;;;;;;;;;;5079811;28;20088;-85
2023/01/10 00:49:41;;;;;;;0.20;0.10;;;;;;;;;;5053729;28;20443;-84
2023/01/10 00:52:07;;;;;;;0.20;0.10;;;;;;;;;;5074177;28;20035;-84
2023/01/10 00:54:33;;;;;;;0.20;0.10;;;;;;;;;;5074691;28;20173;-84
2023/01/10 00:56:59;;;;;;;0.20;0.10;;;;;;;;;;5050608;28;20040;-84
2023/01/10 00:59:25;;;;;;;0.20;0.10;;;;;;;;;;5067011;28;20059;-84
2023/01/10 01:01:51;;;;;;;0.20;0.10;;;;;;;;;;5058995;28;20037;-84
2023/01/10 01:04:18;;;;;;;0.20;0.10;;;;;;;;;;5073181;28;20063;-84
2023/01/10 01:06:45;;;;;;;0.32;0.32;;;;;;;;;;5076804;28;20047;-83
2023/01/10 01:09:11;;;;;;;0.20;0.10;;;;;;;;;;5064378;28;20051;-83
2023/01/10 01:11:37;;;;;;;0.20;0.20;;;;;;;;;;5049971;28;20043;-84
2023/01/10 01:14:03;;;;;;;0.20;0.10;;;;;;;;;;5068348;28;20481;-88
2023/01/10 01:16:29;;;;;;;0.20;0.10;;;;;;;;;;5067934;28;20101;-85
2023/01/10 01:18:56;;;;;;;0.20;0.10;;;;;;;;;;5088054;28;20028;-85
2023/01/10 01:21:26;;;;;;;0.20;0.10;;;;;;;;;;5070876;28;20036;-84
2023/01/10 01:23:55;;;;;;;0.20;0.10;;;;;;;;;;5045256;28;20086;-85
2023/01/10 01:26:21;;;;;;;0.20;0.10;;;;;;;;;;5059530;28;20410;-84
2023/01/10 01:28:47;;;;;;;0.20;0.10;;;;;;;;;;5078189;28;20148;-85
2023/01/10 01:31:13;;;;;;;0.20;0.10;;;;;;;;;;5078341;28;20131;-82
2023/01/10 01:33:39;;;;;;;0.20;0.10;;;;;;;;;;5090018;28;20044;-84
2023/01/10 01:36:09;;;;;;;0.20;0.10;;;;;;;;;;5066584;28;20039;-84
2023/01/10 01:38:36;;;;;;;0.20;0.10;;;;;;;;;;5062805;28;20498;-86
2023/01/10 01:41:02;;;;;;;0.20;0.10;;;;;;;;;;5066652;28;20120;-84
2023/01/10 01:43:30;;;;;;;0.20;0.10;;;;;;;;;;5074230;28;20036;-84
2023/01/10 01:45:59;;;;;;;0.20;0.10;;;;;;;;;;5079646;28;20053;-84
2023/01/10 01:48:31;;;;;;;0.20;0.10;;;;;;;;;;5051719;28;20043;-84
2023/01/10 01:51:06;;;;;;;0.20;0.10;;;;;;;;;;5071790;28;20427;-84
2023/01/10 01:53:34;;;;;;;0.20;0.10;;;;;;;;;;5069197;28;20040;-86
2023/01/10 01:56:06;;;;;;;0.20;0.10;;;;;;;;;;5069848;28;20028;-83
2023/01/10 01:58:39;;;;;;;0.20;0.10;;;;;;;;;;5083035;28;20153;-84
2023/01/10 02:01:05;;;;;;;0.20;0.10;;;;;;;;;;5089122;28;20028;-84
2023/01/10 02:03:31;;;;;;;0.20;0.10;;;;;;;;;;5066898;28;20040;-84
2023/01/10 02:05:57;;;;;;;0.20;0.10;;;;;;;;;;5056804;28;20043;-83
2023/01/10 02:08:23;;;;;;;0.20;0.10;;;;;;;;;;5062812;28;20617;-83
2023/01/10 02:10:54;;;;;;;0.20;0.10;;;;;;;;;;5058222;28;20498;-84
2023/01/10 02:13:21;;;;;;;0.20;0.10;;;;;;;;;;5068526;28;20422;-84
2023/01/10 02:15:47;;;;;;;0.20;0.10;;;;;;;;;;5058527;28;20065;-83
2023/01/10 02:18:14;;;;;;;0.20;0.10;;;;;;;;;;5071472;28;20039;-84
2023/01/10 02:20:58;;;;;;;0.20;0.13;;;;;;;;;;5098750;28;20509;-84
2023/01/10 02:23:30;;;;;;;0.20;0.10;;;;;;;;;;5056960;28;20491;-84
2023/01/10 02:25:56;;;;;;;0.20;0.10;;;;;;;;;;5053347;28;20040;-84
2023/01/10 02:28:22;;;;;;;0.20;0.10;;;;;;;;;;5074324;28;20551;-84
2023/01/10 02:30:51;;;;;;;0.20;0.10;;;;;;;;;;5073443;28;20033;-86
2023/01/10 02:33:29;;;;;;;0.20;0.10;;;;;;;;;;5065954;28;20032;-84
2023/01/10 02:36:06;;;;;;;0.20;0.10;;;;;;;;;;5063394;28;20032;-85
2023/01/10 02:38:32;;;;;;;0.20;0.10;;;;;;;;;;5072447;28;20516;-84
2023/01/10 02:41:05;;;;;;;0.20;0.10;;;;;;;;;;5090080;28;20035;-84
2023/01/10 02:43:37;;;;;;;0.20;0.10;;;;;;;;;;5101156;28;20036;-86
2023/01/10 02:46:12;;;;;;;0.20;0.10;;;;;;;;;;5075087;28;20044;-83
2023/01/10 02:48:38;;;;;;;0.20;0.10;;;;;;;;;;5068239;28;20044;-82
2023/01/10 02:51:19;;;;;;;0.20;0.10;;;;;;;;;;5049312;28;20082;-85
2023/01/10 02:53:52;;;;;;;0.20;0.10;;;;;;;;;;5079182;28;20032;-83
2023/01/10 02:56:27;;;;;;;0.20;0.10;;;;;;;;;;5067276;28;20046;-83
2023/01/10 02:59:12;;;;;;;0.20;0.10;;;;;;;;;;5081340;28;20123;-84
2023/01/10 03:02:02;;;;;;;0.20;0.10;;;;;;;;;;5060604;28;20043;-82
2023/01/10 03:04:47;;;;;;;0.20;0.10;;;;;;;;;;5061759;28;20068;-84
2023/01/10 03:07:24;;;;;;;0.20;0.10;;;;;;;;;;5063487;28;20379;-83
2023/01/10 03:10:09;;;;;;;0.20;0.10;;;;;;;;;;5077650;28;20534;-84
2023/01/10 03:12:35;;;;;;;0.20;0.10;;;;;;;;;;5070266;28;20075;-86
2023/01/10 03:15:02;;;;;;;0.20;0.10;;;;;;;;;;5054299;28;20137;-84
2023/01/10 03:17:29;;;;;;;0.20;0.10;;;;;;;;;;5065788;28;20514;-86
2023/01/10 03:19:58;;;;;;;0.20;0.10;;;;;;;;;;5077312;28;20044;-84
2023/01/10 03:22:27;;;;;;;0.20;0.10;;;;;;;;;;5056941;28;20036;-84
2023/01/10 03:24:56;;;;;;;0.20;0.10;;;;;;;;;;5068400;28;20036;-83
2023/01/10 03:27:41;;;;;;;0.20;0.10;;;;;;;;;;5080639;28;20040;-84
2023/01/10 03:30:07;;;;;;;0.20;0.10;;;;;;;;;;5084355;28;20109;-84
2023/01/10 03:32:33;;;;;;;0.20;0.10;;;;;;;;;;5095703;28;20406;-81
2023/01/10 03:35:00;;;;;;;0.20;0.10;;;;;;;;;;5059377;28;20039;-85
2023/01/10 03:37:32;;;;;;;0.20;0.10;;;;;;;;;;5050056;28;20068;-85
2023/01/10 03:40:03;;;;;;;0.20;0.10;;;;;;;;;;5057490;28;20513;-84
2023/01/10 03:44:42;;;;;;;0.20;0.10;;;;;;;;;;5062262;28;20042;-85
2023/01/10 03:45:24;;;;;;;0.20;0.10;;;;;;;;;;5080669;28;20040;-85
2023/01/10 03:47:52;;;;;;;0.20;0.10;;;;;;;;;;5087480;28;20035;-84
2023/01/10 03:50:20;;;;;;;0.20;0.10;;;;;;;;;;5055178;28;20043;-83
2023/01/10 03:52:46;;;;;;;0.20;0.10;;;;;;;;;;5055028;28;20064;-83
2023/01/10 03:55:14;;;;;;;0.20;0.10;;;;;;;;;;5083572;28;20038;-83
2023/01/10 03:57:44;;;;;;;0.20;0.10;;;;;;;;;;5070595;28;20043;-84
2023/01/10 04:00:11;;;;;;;0.20;0.10;;;;;;;;;;5059948;28;20094;-87
2023/01/10 04:02:37;;;;;;;0.20;0.10;;;;;;;;;;5077816;28;20044;-84
2023/01/10 04:05:03;;;;;;;0.20;0.10;;;;;;;;;;5078970;28;20380;-84
2023/01/10 04:07:29;;;;;;;0.20;0.10;;;;;;;;;;5070915;28;20044;-84
2023/01/10 04:09:55;;;;;;;0.20;0.10;;;;;;;;;;5066304;28;20064;-85
2023/01/10 04:12:21;;;;;;;0.20;0.10;;;;;;;;;;5091361;28;20498;-85
2023/01/10 04:14:47;;;;;;;0.20;0.10;;;;;;;;;;5070588;28;20043;-85
2023/01/10 04:17:14;;;;;;;0.20;0.10;;;;;;;;;;5071816;28;20036;-85
2023/01/10 04:19:40;;;;;;;0.20;0.10;;;;;;;;;;5056372;28;20269;-83
2023/01/10 04:22:06;;;;;;;0.20;0.10;;;;;;;;;;5067414;28;20040;-85
2023/01/10 04:24:33;;;;;;;0.20;0.10;;;;;;;;;;5075009;28;20154;-84
2023/01/10 04:26:59;;;;;;;1.65;1.48;;;;;;;;;;5069472;28;20047;-83
2023/01/10 04:29:25;;;;;;;0.20;0.10;;;;;;;;;;5066182;28;20046;-82
2023/01/10 04:31:52;;;;;;;0.20;0.10;;;;;;;;;;5059388;28;20195;-82
2023/01/10 04:34:21;;;;;;;0.20;0.10;;;;;;;;;;5057999;28;20438;-83
2023/01/10 04:36:47;;;;;;;0.20;0.10;;;;;;;;;;5055302;28;20102;-83
2023/01/10 04:39:13;;;;;;;0.20;0.10;;;;;;;;;;5050368;28;20101;-83
2023/01/10 04:41:39;;;;;;;0.20;0.10;;;;;;;;;;5052085;28;20085;-84
2023/01/10 04:44:05;;;;;;;0.20;0.10;;;;;;;;;;5063011;28;20028;-85
2023/01/10 04:46:32;;;;;;;0.20;0.10;;;;;;;;;;5066326;28;20032;-84
2023/01/10 04:48:58;;;;;;;0.22;0.22;;;;;;;;;;5064034;28;20044;-84
2023/01/10 04:51:24;;;;;;;0.20;0.10;;;;;;;;;;5070599;28;20043;-85
2023/01/10 04:53:50;;;;;;;0.20;0.10;;;;;;;;;;5066757;28;20043;-82
2023/01/10 04:56:18;;;;;;;0.20;0.10;;;;;;;;;;5055150;28;20068;-83
2023/01/10 04:58:44;;;;;;;0.20;0.10;;;;;;;;;;5082157;28;20036;-84
2023/01/10 05:01:11;;;;;;;0.20;0.20;;;;;;;;;;5093541;28;20035;-82
2023/01/10 05:03:37;;;;;;;0.20;0.10;;;;;;;;;;5062052;28;20036;-84
2023/01/10 05:06:03;;;;;;;0.20;0.10;;;;;;;;;;5073918;28;20397;-81
2023/01/10 05:08:30;;;;;;;0.20;0.10;;;;;;;;;;5064668;28;20234;-83
2023/01/10 05:10:56;;;;;;;0.20;0.10;;;;;;;;;;5070397;28;20093;-84
2023/01/10 05:13:22;;;;;;;0.20;0.10;;;;;;;;;;5077190;28;20037;-83
2023/01/10 05:15:57;;;;;;;0.20;0.10;;;;;;;;;;5075131;28;20446;-82
2023/01/10 05:18:24;;;;;;;0.20;0.10;;;;;;;;;;5060831;28;20036;-83
2023/01/10 05:20:50;;;;;;;0.20;0.10;;;;;;;;;;5097496;28;20036;-82
2023/01/10 05:23:16;;;;;;;0.20;0.10;;;;;;;;;;5071999;28;20410;-84
2023/01/10 05:25:42;;;;;;;0.20;0.10;;;;;;;;;;5077338;28;20036;-82
2023/01/10 05:28:08;;;;;;;0.20;0.10;;;;;;;;;;5069948;28;20053;-83
2023/01/10 05:30:34;;;;;;;0.20;0.10;;;;;;;;;;5104276;28;20043;-85
2023/01/10 05:33:00;;;;;;;0.20;0.10;;;;;;;;;;5066982;28;20035;-87
2023/01/10 05:35:26;;;;;;;0.20;0.10;;;;;;;;;;5056547;28;20044;-83
2023/01/10 05:37:52;;;;;;;0.20;0.10;;;;;;;;;;5055565;28;20100;-83
2023/01/10 05:40:18;;;;;;;0.20;0.10;;;;;;;;;;5054894;28;20040;-85
2023/01/10 05:42:44;;;;;;;0.20;0.10;;;;;;;;;;5078795;28;20174;-83
2023/01/10 05:45:11;;;;;;;0.20;0.10;;;;;;;;;;5078236;28;20039;-82
2023/01/10 05:47:37;;;;;;;0.20;0.10;;;;;;;;;;5073923;28;20043;-84
2023/01/10 05:50:05;;;;;;;0.20;0.10;;;;;;;;;;5067865;28;20047;-83
2023/01/10 05:52:31;;;;;;;0.20;0.10;;;;;;;;;;5056563;28;20055;-86
2023/01/10 05:54:57;;;;;;;0.20;0.10;;;;;;;;;;5071322;28;20049;-83
2023/01/10 05:57:23;;;;;;;0.20;0.10;;;;;;;;;;5067092;28;20047;-83
2023/01/10 05:59:50;;;;;;;0.20;0.10;;;;;;;;;;5057533;28;20024;-83
2023/01/10 06:02:16;;;;;;;0.20;0.10;;;;;;;;;;5103667;28;20036;-84
2023/01/10 06:04:42;;;;;;;0.20;0.10;;;;;;;;;;5085062;28;20478;-83
2023/01/10 06:07:08;;;;;;;0.20;0.10;;;;;;;;;;5068993;28;20122;-84
2023/01/10 06:09:34;;;;;;;0.20;0.10;;;;;;;;;;5058155;28;20043;-83
2023/01/10 06:12:00;;;;;;;0.20;0.10;;;;;;;;;;5075767;28;20040;-84
2023/01/10 06:14:26;;;;;;;0.20;0.10;;;;;;;;;;5063104;28;20414;-84
2023/01/10 06:16:52;;;;;;;0.20;0.10;;;;;;;;;;5066831;28;20131;-84
2023/01/10 06:19:18;;;;;;;0.20;0.10;;;;;;;;;;5089254;28;20529;-82
2023/01/10 06:21:45;;;;;;;0.20;0.10;;;;;;;;;;5084423;22;20040;-86
2023/01/10 06:24:11;;;;;;;0.28;0.25;;;;;;;;;;5069746;28;20033;-89
2023/01/10 06:26:37;;;;;;;1.92;1.38;;;;;;;;;;5053014;28;20082;-88
2023/01/10 06:29:03;;;;;;;0.20;0.10;;;;;;;;;;5048907;28;20048;-85
2023/01/10 06:31:50;;;;;;;0.20;0.10;;;;;;;;;;5056527;28;20047;-87
2023/01/10 06:34:52;;;;;;;0.20;0.10;;;;;;;;;;5055210;28;20055;-88
2023/01/10 06:37:18;;;;;;;0.20;0.10;;;;;;;;;;5066761;28;20494;-87
2023/01/10 06:39:59;;;;;;;0.20;0.10;;;;;;;;;;5050932;28;20359;-88
2023/01/10 06:42:32;;;;;;;0.20;0.10;;;;;;;;;;5097870;22;20036;-88
2023/01/10 06:45:03;;;;;;;0.20;0.10;;;;;;;;;;5097260;27;20146;-89
2023/01/10 06:47:35;;;;;;;0.20;0.10;;;;;;;;;;5098928;28;20291;-87
2023/01/10 06:50:04;;;;;;;0.20;0.10;;;;;;;;;;5105339;27;20531;-89
2023/01/10 06:52:30;;;;;;;0.20;0.10;;;;;;;;;;5116791;27;20327;-87
2023/01/10 06:54:56;;;;;;;0.25;0.15;;;;;;;;;;5115482;22;20043;-83
2023/01/10 06:57:22;;;;;;;0.20;0.10;;;;;;;;;;5135877;27;20031;-84
2023/01/10 06:59:48;;;;;;;0.20;0.10;;;;;;;;;;5134059;27;20038;-83
2023/01/10 07:02:14;;;;;;;0.30;0.30;;;;;;;;;;5119628;27;20435;-84
2023/01/10 07:04:40;;;;;;;0.20;0.10;;;;;;;;;;5114115;27;20035;-86
2023/01/10 07:07:06;;;;;;;0.20;0.10;;;;;;;;;;5112774;27;20042;-84
2023/01/10 07:09:32;;;;;;;0.57;0.57;;;;;;;;;;5126124;27;20039;-86
2023/01/10 07:11:59;;;;;;;0.20;0.20;;;;;;;;;;5128625;27;20684;-83
2023/01/10 07:14:24;;;;;;;0.20;0.10;;;;;;;;;;5112019;27;20035;-85
2023/01/10 07:16:50;;;;;;;0.20;0.10;;;;;;;;;;5123491;27;20046;-82
2023/01/10 07:19:18;;;;;;;1.00;1.00;;;;;;;;;;5118715;27;20041;-86
2023/01/10 07:21:44;;;;;;;0.20;0.10;;;;;;;;;;5130671;27;20095;-83
2023/01/10 07:24:10;;;;;;;0.20;0.10;;;;;;;;;;5109041;27;20114;-84
2023/01/10 07:26:36;;;;;;;0.20;0.10;;;;;;;;;;5149177;27;20114;-86
2023/01/10 07:29:05;;;;;;;0.20;0.10;;;;;;;;;;5141635;27;20508;-83
2023/01/10 07:31:31;;;;;;;0.20;0.10;;;;;;;;;;5126349;27;20039;-86
2023/01/10 07:33:57;;;;;;;0.20;0.10;;;;;;;;;;5129875;27;20096;-84
2023/01/10 07:36:23;;;;;;;0.20;0.10;;;;;;;;;;5134734;27;20047;-85
2023/01/10 07:38:49;;;;;;;0.20;0.10;;;;;;;;;;5129323;27;20034;-82
2023/01/10 07:41:15;;;;;;;0.20;0.10;;;;;;;;;;5121622;27;20028;-84
2023/01/10 07:43:41;;;;;;;0.20;0.10;;;;;;;;;;5148532;27;20049;-81
2023/01/10 07:46:08;;;;;;;0.20;0.10;;;;;;;;;;5149920;27;20049;-83
2023/01/10 07:48:35;;;;;;;0.20;0.10;;;;;;;;;;5132866;27;20098;-83
2023/01/10 07:51:01;;;;;;;0.20;0.10;;;;;;;;;;5132669;27;20041;-82
2023/01/10 07:53:28;;;;;;;0.20;0.10;;;;;;;;;;5132178;27;20047;-85
2023/01/10 07:55:54;;;;;;;0.20;0.10;;;;;;;;;;5141954;27;20035;-83
2023/01/10 07:58:20;;;;;;;0.20;0.10;;;;;;;;;;5125788;27;20122;-82
2023/01/10 08:00:49;;;;;;;2.03;1.85;;;;;;;;;;5139617;27;20356;-81
2023/01/10 08:03:15;;;;;;;0.20;0.10;;;;;;;;;;5124524;27;20122;-83
2023/01/10 08:05:41;;;;;;;0.20;0.10;;;;;;;;;;5109136;27;20148;-82
2023/01/10 08:08:08;;;;;;;0.20;0.10;;;;;;;;;;5126654;27;20068;-82
2023/01/10 08:10:35;;;;;;;0.20;0.10;;;;;;;;;;5102122;27;20035;-80
2023/01/10 08:13:01;;;;;;;0.20;0.10;;;;;;;;;;5142637;27;20042;-83
2023/01/10 08:15:27;;;;;;;0.20;0.10;;;;;;;;;;5123233;27;20404;-82
2023/01/10 08:17:53;;;;;;;0.20;0.10;;;;;;;;;;5125740;27;20038;-82
2023/01/10 08:20:19;;;;;;;0.20;0.10;;;;;;;;;;5137056;27;20055;-82
2023/01/10 08:22:45;;;;;;;0.20;0.10;;;;;;;;;;5150864;27;20121;-83
2023/01/10 08:25:11;;;;;;;0.20;0.10;;;;;;;;;;5118927;27;20478;-83
2023/01/10 08:27:37;;;;;;;0.20;0.10;;;;;;;;;;5140713;27;20110;-82
2023/01/10 08:30:04;;;;;;;0.20;0.10;;;;;;;;;;5136474;27;20513;-84
2023/01/10 08:32:30;;;;;;;0.40;0.40;;;;;;;;;;5140398;27;20135;-82
2023/01/10 08:34:56;;;;;;;0.20;0.10;;;;;;;;;;5141811;27;20462;-84
2023/01/10 08:37:22;;;;;;;0.20;0.10;;;;;;;;;;5125288;27;20676;-82
2023/01/10 08:39:48;;;;;;;0.20;0.10;;;;;;;;;;5129839;27;20044;-83
2023/01/10 08:42:15;;;;;;;0.20;0.10;;;;;;;;;;5129134;27;20604;-83
2023/01/10 08:44:41;;;;;;;0.20;0.10;;;;;;;;;;5128769;27;20043;-84
2023/01/10 08:47:10;;;;;;;0.20;0.10;;;;;;;;;;5133654;27;20050;-83
2023/01/10 08:49:41;;;;;;;0.20;0.10;;;;;;;;;;5117032;27;20586;-84
2023/01/10 08:52:07;;;;;;;0.20;0.10;;;;;;;;;;5131090;27;20031;-83
2023/01/10 08:54:42;;;;;;;0.20;0.10;;;;;;;;;;5134793;27;20039;-85
2023/01/10 08:57:08;;;;;;;0.35;0.35;;;;;;;;;;5117812;27;20035;-85
2023/01/10 08:59:35;;;;;;;0.20;0.10;;;;;;;;;;5124027;27;20125;-83
2023/01/10 09:02:01;;;;;;;0.20;0.10;;;;;;;;;;5121662;27;20439;-84
2023/01/10 09:04:28;;;;;;;0.20;0.10;;;;;;;;;;5125818;27;20047;-83
2023/01/10 09:06:55;;;;;;;0.20;0.10;;;;;;;;;;5102969;27;20039;-83
2023/01/10 09:09:24;;;;;;;0.20;0.10;;;;;;;;;;5108316;27;20062;-85
2023/01/10 09:11:50;;;;;;;0.20;0.10;;;;;;;;;;5116046;27;20060;-83
2023/01/10 09:14:16;;;;;;;0.20;0.10;;;;;;;;;;5118555;28;20031;-84
2023/01/10 09:16:42;;;;;;;0.20;0.10;;;;;;;;;;5125423;27;20053;-84
2023/01/10 09:19:08;;;;;;;0.20;0.10;;;;;;;;;;5137304;27;20031;-84
2023/01/10 09:21:34;;;;;;;0.20;0.10;;;;;;;;;;5122306;27;20415;-84
2023/01/10 09:24:00;;;;;;;0.20;0.10;;;;;;;;;;5115072;27;20035;-84
2023/01/10 09:26:26;;;;;;;0.20;0.10;;;;;;;;;;5126863;27;20030;-83
2023/01/10 09:28:54;;;;;;;0.90;0.57;;;;;;;;;;5134039;27;20031;-82
2023/01/10 09:31:20;;;;;;;0.20;0.10;;;;;;;;;;5139545;27;20467;-84
2023/01/10 09:33:48;;;;;;;0.20;0.10;;;;;;;;;;5122955;27;20127;-85
2023/01/10 09:36:14;;;;;;;0.20;0.10;;;;;;;;;;5119690;27;20075;-84
2023/01/10 09:38:41;;;;;;;0.20;0.10;;;;;;;;;;5110764;27;20035;-84
2023/01/10 09:41:10;;;;;;;0.20;0.10;;;;;;;;;;5128630;28;20035;-85
2023/01/10 09:43:54;;;;;;;0.20;0.10;;;;;;;;;;5103857;27;20030;-85
2023/01/10 09:46:27;;;;;;;0.20;0.10;;;;;;;;;;5104454;27;20038;-85
2023/01/10 09:49:00;;;;;;;0.20;0.10;;;;;;;;;;5103369;27;20027;-85
2023/01/10 09:51:32;;;;;;;0.20;0.10;;;;;;;;;;5148515;27;20047;-85
2023/01/10 09:54:00;;;;;;;0.20;0.10;;;;;;;;;;5128698;27;20031;-83
2023/01/10 09:56:28;;;;;;;0.20;0.10;;;;;;;;;;5138805;27;20043;-83
2023/01/10 09:58:54;;;;;;;0.20;0.20;;;;;;;;;;5144972;27;20034;-85
2023/01/10 10:01:26;;;;;;;0.20;0.20;;;;;;;;;;5126951;27;20035;-83
2023/01/10 10:04:07;;;;;;;0.55;0.30;;;;;;;;;;5131402;27;20039;-83
2023/01/10 10:06:33;;;;;;;0.20;0.10;;;;;;;;;;5132643;27;20045;-82
2023/01/10 10:08:59;;;;;;;0.20;0.10;;;;;;;;;;5133648;27;20031;-84
2023/01/10 10:11:25;;;;;;;0.20;0.10;;;;;;;;;;5137224;27;20039;-83
2023/01/10 10:14:16;;;;;;;0.30;0.30;;;;;;;;;;5146866;27;20045;-84
2023/01/10 10:17:01;;;;;;;0.20;0.10;;;;;;;;;;5142588;27;20045;-85
2023/01/10 10:19:45;;;;;;;0.20;0.10;;;;;;;;;;5121042;27;20613;-84
2023/01/10 10:22:11;;;;;;;0.20;0.10;;;;;;;;;;5113750;27;20035;-82
2023/01/10 10:24:37;;;;;;;0.20;0.10;;;;;;;;;;5147912;27;20695;-84
2023/01/10 10:27:22;;;;;;;0.20;0.10;;;;;;;;;;5145139;27;20039;-83
2023/01/10 10:29:54;;;;;;;0.20;0.10;;;;;;;;;;5120359;27;20131;-84
2023/01/10 10:32:20;;;;;;;0.20;0.10;;;;;;;;;;5130906;27;20493;-82
2023/01/10 10:34:50;;;;;;;0.20;0.10;;;;;;;;;;5146495;27;20041;-84
2023/01/10 10:37:25;;;;;;;0.30;0.20;;;;;;;;;;5123247;27;20039;-84
2023/01/10 10:39:59;;;;;;;0.20;0.10;;;;;;;;;;5124253;27;20703;-84
2023/01/10 10:42:29;;;;;;;0.20;0.10;;;;;;;;;;5144279;27;20066;-85
2023/01/10 10:44:59;;;;;;;0.20;0.10;;;;;;;;;;5120057;27;20034;-83
2023/01/10 10:47:32;;;;;;;0.20;0.10;;;;;;;;;;5140640;27;20405;-82
2023/01/10 10:50:16;;;;;;;0.20;0.10;;;;;;;;;;5126384;27;20039;-84
2023/01/10 10:52:43;;;;;;;0.20;0.10;;;;;;;;;;5118400;27;20043;-84
2023/01/10 10:55:13;;;;;;;0.20;0.10;;;;;;;;;;5133125;27;20038;-83
2023/01/10 10:57:40;;;;;;;1.77;0.30;;;;;;;;;;5114589;27;20042;-85
2023/01/10 11:00:07;;;;;;;0.65;0.65;;;;;;;;;;5146840;27;20033;-83
2023/01/10 11:02:39;;;;;;;0.30;0.28;;;;;;;;;;5122790;27;20042;-86
2023/01/10 11:05:15;;;;;;;0.20;0.10;;;;;;;;;;5116796;27;20497;-83
2023/01/10 11:07:41;;;;;;;0.20;0.10;;;;;;;;;;5116074;27;20125;-85
2023/01/10 11:12:49;;;;;;;0.30;0.28;;;;;;;;;;5124595;27;20079;-84
2023/01/10 11:15:35;;;;;;;1.17;1.08;;;;;;;;;;5123401;27;20034;-83
2023/01/10 11:18:21;;;;;;;0.20;0.20;;;;;;;;;;5114177;27;20415;-85
2023/01/10 11:20:56;;;;;;;0.20;0.10;;;;;;;;;;5109905;27;20122;-84
2023/01/10 11:23:43;;;;;;;0.20;0.10;;;;;;;;;;5127656;27;20035;-84
2023/01/10 11:26:22;;;;;;;0.20;0.10;;;;;;;;;;5103937;27;20096;-84
2023/01/10 11:28:48;;;;;;;0.20;0.10;;;;;;;;;;5132088;27;20040;-84
2023/01/10 11:31:14;;;;;;;0.20;0.10;;;;;;;;;;5128390;27;20400;-86
2023/01/10 11:33:41;;;;;;;0.20;0.10;;;;;;;;;;5132959;27;20150;-85
2023/01/10 11:36:09;;;;;;;0.20;0.10;;;;;;;;;;5124655;27;20038;-84
2023/01/10 11:38:35;;;;;;;0.20;0.10;;;;;;;;;;5114267;27;20052;-84
2023/01/10 11:41:05;;;;;;;0.20;0.10;;;;;;;;;;5129931;27;20118;-83
2023/01/10 11:43:36;;;;;;;0.38;0.38;;;;;;;;;;5120219;27;20035;-84
2023/01/10 11:46:03;;;;;;;0.20;0.10;;;;;;;;;;5114299;27;20035;-82
2023/01/10 11:48:53;;;;;;;0.20;0.20;;;;;;;;;;5134263;27;20035;-84
2023/01/10 11:51:23;;;;;;;0.20;0.13;;;;;;;;;;5120330;27;20053;-83
2023/01/10 11:53:50;;;;;;;0.40;0.30;;;;;;;;;;5123544;27;20042;-83
2023/01/10 11:56:22;;;;;;;0.20;0.10;;;;;;;;;;5127947;27;20041;-83
2023/01/10 11:58:48;;;;;;;;;;;;;;;;;;5110891;27;20091;-83
2023/01/10 12:01:40;;;;;;;0.20;0.10;;;;;;;;;;5132199;27;19919;-84
2023/01/10 12:04:06;;;;;;;0.20;0.10;;;;;;;;;;5115941;27;20042;-84
2023/01/10 12:06:33;;;;;;;0.20;0.10;;;;;;;;;;5144684;27;20051;-83
2023/01/10 12:08:59;;;;;;;0.20;0.10;;;;;;;;;;5122049;27;20039;-85
2023/01/10 12:11:30;;;;;;;0.30;0.30;;;;;;;;;;5127315;27;20034;-84
2023/01/10 12:14:00;;;;;;;0.20;0.10;;;;;;;;;;5114731;27;20034;-84
2023/01/10 12:16:26;;;;;;;0.20;0.10;;;;;;;;;;5136117;27;20062;-82
2023/01/10 12:18:54;;;;;;;0.20;0.10;;;;;;;;;;5140004;27;20075;-83
2023/01/10 12:21:26;;;;;;;0.20;0.10;;;;;;;;;;5152309;27;20038;-84
2023/01/10 12:23:53;;;;;;;0.40;0.40;;;;;;;;;;5122001;27;20121;-85
2023/01/10 12:26:19;;;;;;;0.20;0.10;;;;;;;;;;5123708;27;20027;-85
2023/01/10 12:28:49;;;;;;;0.20;0.10;;;;;;;;;;5125005;27;20131;-83
2023/01/10 12:31:18;;;;;;;0.20;0.10;;;;;;;;;;5132983;27;20031;-83
2023/01/10 12:33:46;;;;;;;0.38;0.38;;;;;;;;;;5138824;27;20049;-85
2023/01/10 12:36:26;;;;;;;0.20;0.10;;;;;;;;;;5107228;27;20480;-84
2023/01/10 12:39:04;;;;;;;0.20;0.10;;;;;;;;;;5124231;27;20500;-84
2023/01/10 12:44:31;;;;;;;0.20;0.10;;;;;;;;;;5128601;27;20513;-83
2023/01/10 12:47:18;;;;;;;0.20;0.10;;;;;;;;;;5114665;27;20477;-83
2023/01/10 12:49:48;;;;;;;0.20;0.10;;;;;;;;;;5131729;27;20047;-81
2023/01/10 12:52:18;;;;;;;0.20;0.10;;;;;;;;;;5107050;27;20484;-82
2023/01/10 12:54:45;;;;;;;0.20;0.10;;;;;;;;;;5145513;22;20048;-85
2023/01/10 12:57:22;;;;;;;0.20;0.10;;;;;;;;;;5050688;28;20115;-84
2023/01/10 12:59:52;;;;;;;0.20;0.10;;;;;;;;;;5085234;28;20119;-85
2023/01/10 13:02:23;;;;;;;0.20;0.10;;;;;;;;;;5050992;28;20060;-85
2023/01/10 13:04:52;;;;;;;0.20;0.10;;;;;;;;;;5064897;28;20045;-86
2023/01/10 13:07:19;;;;;;;0.20;0.10;;;;;;;;;;5058327;28;20371;-85
2023/01/10 13:09:47;;;;;;;0.20;0.17;;;;;;;;;;5049699;28;20068;-83
2023/01/10 13:12:39;;;;;;;0.20;0.10;;;;;;;;;;5057337;28;20256;-86
2023/01/10 13:15:17;;;;;;;0.30;0.20;;;;;;;;;;5033524;28;20091;-83
2023/01/10 13:17:47;;;;;;;0.20;0.10;;;;;;;;;;5065064;28;20037;-84
2023/01/10 13:20:16;;;;;;;0.20;0.10;;;;;;;;;;5051747;28;20044;-84
2023/01/10 13:22:44;;;;;;;0.20;0.10;;;;;;;;;;5066493;28;20045;-85
2023/01/10 13:25:21;;;;;;;0.20;0.10;;;;;;;;;;5064010;28;20157;-86
2023/01/10 13:27:54;;;;;;;0.20;0.10;;;;;;;;;;5061646;28;20387;-86
2023/01/10 13:30:30;;;;;;;0.20;0.10;;;;;;;;;;5069521;28;20047;-85
2023/01/10 13:33:00;;;;;;;0.20;0.10;;;;;;;;;;5067202;28;20094;-85
2023/01/10 13:35:28;;;;;;;0.30;0.15;;;;;;;;;;5067458;28;20029;-84
2023/01/10 13:37:57;;;;;;;0.20;0.10;;;;;;;;;;5067362;28;20064;-86
2023/01/10 13:40:26;;;;;;;0.20;0.10;;;;;;;;;;5068708;28;20039;-87
2023/01/10 13:43:17;;;;;;;1.45;1.05;;;;;;;;;;5066103;28;20037;-84
2023/01/10 13:45:46;;;;;;;0.20;0.10;;;;;;;;;;5068829;28;20490;-87
2023/01/10 13:48:24;;;;;;;0.20;0.10;;;;;;;;;;5068833;28;20052;-86
2023/01/10 13:51:04;;;;;;;0.20;0.10;;;;;;;;;;5071267;28;20126;-84
2023/01/10 13:53:31;;;;;;;0.20;0.20;;;;;;;;;;5071438;28;20041;-85
2023/01/10 13:55:57;;;;;;;1.02;1.02;;;;;;;;;;5053204;28;20051;-84
2023/01/10 14:04:22;;;;;;;0.20;0.10;;;;;;;;;;5070892;28;20333;-85
2023/01/10 14:06:56;;;;;;;0.20;0.10;;;;;;;;;;5050711;28;20041;-89
2023/01/10 14:09:22;;;;;;;0.20;0.10;;;;;;;;;;5056058;28;20387;-85
2023/01/10 14:11:54;;;;;;;0.20;0.10;;;;;;;;;;5062200;28;20422;-84
2023/01/10 14:14:26;;;;;;;5.10;0.32;;;;;;;;;;5059042;28;20037;-86
2023/01/10 14:16:54;;;;;;;0.20;0.10;;;;;;;;;;5064590;28;20214;-85
2023/01/10 14:19:23;;;;;;;0.20;0.10;;;;;;;;;;5063912;28;20040;-87
2023/01/10 14:21:53;;;;;;;0.20;0.10;;;;;;;;;;5051642;28;20437;-86
2023/01/10 14:24:24;;;;;;;0.20;0.10;;;;;;;;;;5066596;28;20048;-87
2023/01/10 14:27:00;;;;;;;0.20;0.10;;;;;;;;;;5074863;28;20090;-87
2023/01/10 14:29:30;;;;;;;0.20;0.10;;;;;;;;;;5071142;28;20442;-87
2023/01/10 14:31:57;;;;;;;0.25;0.17;;;;;;;;;;5049428;28;20531;-86
2023/01/10 14:34:35;;;;;;;0.85;0.85;;;;;;;;;;5054228;28;20045;-84
2023/01/10 14:37:02;;;;;;;0.20;0.10;;;;;;;;;;5062911;28;20502;-86
2023/01/10 14:39:29;;;;;;;0.20;0.10;;;;;;;;;;5071759;28;20036;-85
2023/01/10 14:41:58;;;;;;;0.20;0.10;;;;;;;;;;5051853;28;20403;-85
2023/01/10 14:44:48;;;;;;;0.20;0.10;;;;;;;;;;5064798;28;20036;-87
2023/01/10 14:47:37;;;;;;;0.20;0.10;;;;;;;;;;5061460;28;20044;-86
2023/01/10 14:50:10;;;;;;;0.20;0.10;;;;;;;;;;5071105;28;20040;-86
2023/01/10 14:52:47;;;;;;;0.20;0.10;;;;;;;;;;5048995;28;20076;-86
2023/01/10 14:55:15;;;;;;;0.20;0.10;;;;;;;;;;5070940;28;20046;-85
2023/01/10 14:57:51;;;;;;;0.20;0.10;;;;;;;;;;5054666;28;20082;-86
2023/01/10 15:00:20;;;;;;;0.20;0.10;;;;;;;;;;5070056;28;20113;-84
2023/01/10 15:02:47;;;;;;;0.20;0.10;;;;;;;;;;5072081;28;20075;-86
2023/01/10 15:05:20;;;;;;;0.20;0.10;;;;;;;;;;5069014;28;20041;-86
2023/01/10 15:07:46;;;;;;;0.20;0.10;;;;;;;;;;5076631;28;20494;-85
2023/01/10 15:10:32;;;;;;;0.20;0.10;;;;;;;;;;5053287;28;20105;-86
2023/01/10 15:13:04;;;;;;;0.20;0.10;;;;;;;;;;5057826;28;20045;-86
2023/01/10 15:15:31;;;;;;;0.20;0.10;;;;;;;;;;5083630;28;20043;-86